• Join FlightAware (Why Join?)
  • Login
  • US Flag 
Rudolph Flight #1: Arrived! 
12:23AM EST


 

Airport Tracker/Info


-or-


 

Live Flight TrackerFlight Track Log ✈ SWA896 ✈ 21-Apr-2013 ✈ KBUF - KLAS

Flight Track Log - Related Links

Times and Time Zones

All times are in EDT time to prevent confusion due to time zone crossing. See the SWA896 flight status page for this flight to view local times or setup timezone preferences in your user account.

Time Position Orientation Groundspeed Altitude Reporting Facility
EDT Latitude Longitude Course Direction KTS MPH feet Rate Location/Type
08:22AM 42.9333 -78.7500 206° Southwest 177 204 1,700  Level Buffalo TRACON
08:22AM 42.8833 -78.7833 206° Southwest 221 254 3,400 1,980 Climbing Buffalo TRACON
08:23AM 42.8242 -78.8281 209° Southwest 267 307 5,400 2,520 Climbing Cleveland Center
08:24AM 42.7475 -78.8586 196° South 288 331 8,400 2,580 Climbing Cleveland Center
08:25AM 42.6708 -78.8917 198° South 282 325 10,600 1,740 Climbing Cleveland Center
08:26AM 42.5756 -78.9367 199° South 319 367 11,900 1,800 Climbing Cleveland Center
08:27AM 42.4722 -78.9872 200° South 358 412 14,300 2,340 Climbing Cleveland Center
08:28AM 42.3769 -79.0317 199° South 392 451 16,600 1,860 Climbing Cleveland Center
08:29AM 42.2711 -79.0819 199° South 408 470 18,100 1,740 Climbing Cleveland Center
08:30AM 42.1911 -79.1792 222° Southwest 397 457 20,100 1,860 Climbing Cleveland Center
08:31AM 42.1844 -79.3222 266° West 348 400 21,900 1,740 Climbing Cleveland Center
08:32AM 42.1817 -79.4653 269° West 358 412 23,600 1,500 Climbing Cleveland Center
08:33AM 42.1811 -79.6164 270° West 385 443 24,900 1,200 Climbing Cleveland Center
08:34AM 42.1781 -79.7622 268° West 396 456 26,100 1,200 Climbing Cleveland Center
08:35AM 42.1747 -79.9164 268° West 403 464 27,400 1,680 Climbing Cleveland Center
08:36AM 42.1714 -80.0650 268° West 403 464 29,500 1,620 Climbing Cleveland Center
08:37AM 42.1678 -80.2078 268° West 398 458 30,700 1,020 Climbing Cleveland Center
08:38AM 42.1639 -80.3561 268° West 398 458 31,600 960 Climbing Cleveland Center
08:39AM 42.1622 -80.5019 269° West 398 458 32,700 1,140 Climbing Cleveland Center
08:40AM 42.1581 -80.6447 268° West 398 458 33,900 600 Climbing Cleveland Center
08:41AM 42.1536 -80.8044 268° West 393 452 34,000  Climbing Cleveland Center
08:42AM 42.1492 -80.9472 268° West 393 452 34,000  Level Cleveland Center
08:43AM 42.1422 -81.0900 266° West 385 443 34,000  Level Cleveland Center
08:44AM 42.1394 -81.2383 269° West 385 443 34,000  Level Cleveland Center
08:45AM 42.1364 -81.3811 268° West 385 443 34,000  Level Cleveland Center
08:46AM 42.1311 -81.5267 267° West 385 443 34,000  Level Cleveland Center
08:47AM 42.1258 -81.6694 267° West 385 443 34,000  Level Cleveland Center
08:48AM 42.1200 -81.8147 267° West 385 443 34,000  Level Cleveland Center
08:49AM 42.1164 -81.9603 268° West 385 443 34,000  Level Cleveland Center
08:50AM 42.1103 -82.1086 267° West 390 449 34,000  Level Cleveland Center
08:51AM 42.1064 -82.2372 268° West 390 449 34,000  Level Cleveland Center
08:52AM 42.1064 -82.3856 270° West 390 449 34,000  Level Cleveland Center
08:53AM 42.0914 -82.5333 262° West 397 457 34,000  Level Cleveland Center
08:54AM 42.0867 -82.6789 268° West 397 457 34,000  Level Cleveland Center
08:55AM 42.0797 -82.8297 267° West 403 464 34,000  Level Cleveland Center
08:56AM 42.0747 -82.9722 267° West 403 464 34,000  Level Cleveland Center
08:57AM 42.0650 -83.1311 265° West 403 464 34,000  Level Cleveland Center
08:58AM 42.0600 -83.2653 267° West 403 464 34,000  Level Cleveland Center
08:59AM 42.0544 -83.4106 267° West 403 464 34,000  Level Cleveland Center
09:00AM 42.0442 -83.5667 265° West 398 458 34,000  Level Cleveland Center
09:01AM 42.0383 -83.7089 267° West 388 447 34,000  Level Cleveland Center
09:02AM 42.0300 -83.8511 266° West 388 447 34,000  Level Cleveland Center
09:03AM 42.0217 -83.9961 266° West 383 441 34,000  Level Cleveland Center
09:04AM 42.0156 -84.1356 267° West 383 441 34,000 300 Level Cleveland Center
09:06AM 42.0017 -84.4114 266° West 384 442 34,900 480 Climbing Chicago Center
09:07AM 41.9933 -84.5564 266° West 389 448 35,500 480 Climbing Chicago Center
09:08AM 41.9847 -84.7008 265° West 390 449 36,000 120 Climbing Chicago Center
09:10AM 41.9719 -84.8664 264° West  Level FlightAware Approximate
09:10AM 41.9678 -84.9850 264° West 394 453 36,000  Level Chicago Center
09:11AM 41.9572 -85.1600 265° West 397 457 36,000  Level Chicago Center
09:12AM 41.9472 -85.3081 265° West 400 460 36,000  Level Chicago Center
09:13AM 41.9372 -85.4550 265° West 402 463 36,000  Level Chicago Center
09:15AM 41.9269 -85.6019 265° West 401 461 36,000  Level Chicago Center
09:16AM 41.9169 -85.7492 265° West 401 461 36,000  Level Chicago Center
09:17AM 41.9064 -85.8967 265° West 401 461 36,000  Level Chicago Center
09:18AM 41.8944 -86.0742 265° West 401 461 36,000  Level Chicago Center
09:19AM 41.8828 -86.2222 264° West 401 461 36,000  Level Chicago Center
09:20AM 41.8725 -86.3686 265° West 398 458 36,000  Level Chicago Center
09:21AM 41.8611 -86.5161 264° West 398 458 36,000  Level Chicago Center
09:22AM 41.8497 -86.6650 264° West 401 461 36,000  Level Chicago Center
09:23AM 41.8375 -86.8267 264° West 404 465 36,000  Level Chicago Center
09:24AM 41.8261 -86.9742 264° West 401 461 36,000  Level Chicago Center
09:25AM 41.8133 -87.1236 264° West 405 466 36,000  Level Chicago Center
09:26AM 41.8017 -87.2731 264° West 405 466 36,000  Level Chicago Center
09:27AM 41.7878 -87.4208 263° West 403 464 36,000  Level Chicago Center
09:28AM 41.7733 -87.6006 264° West 408 470 36,000  Level Chicago Center
09:29AM 41.7611 -87.7486 264° West 405 466 36,000  Level Chicago Center
09:30AM 41.7472 -87.8944 263° West 401 461 36,000  Level Chicago Center
09:31AM 41.7344 -88.0411 263° West 402 463 36,000  Level Chicago Center
09:32AM 41.7208 -88.1886 263° West 405 466 36,000  Level Chicago Center
09:33AM 41.7072 -88.3350 263° West 403 464 36,000  Level Chicago Center
09:34AM 41.6908 -88.5111 263° West 402 463 36,000  Level Chicago Center
09:35AM 41.6767 -88.6594 263° West 404 465 36,000  Level Chicago Center
09:36AM 41.6625 -88.8067 263° West 405 466 36,000  Level Chicago Center
09:37AM 41.6483 -88.9569 263° West 408 470 36,000  Level Chicago Center
09:38AM 41.6331 -89.1061 262° West 409 471 36,000  Level Chicago Center
09:39AM 41.6197 -89.2550 263° West 408 470 36,000  Level Chicago Center
09:40AM 41.6036 -89.4022 262° West 402 463 36,000  Level Chicago Center
09:41AM 41.5883 -89.5611 263° West 404 465 36,000  Level Chicago Center
09:42AM 41.5725 -89.7083 262° West 403 464 36,000  Level Chicago Center
09:43AM 41.5583 -89.8561 263° West 403 464 36,000  Level Chicago Center
09:44AM 41.5392 -90.0314 262° West 401 461 36,000  Level Chicago Center
09:45AM 41.5228 -90.1797 262° West 404 465 36,000  Level Chicago Center
09:46AM 41.5069 -90.3278 262° West 405 466 36,000  Level Chicago Center
09:47AM 41.4917 -90.4761 262° West 406 467 36,000  Level Chicago Center
09:48AM 41.4753 -90.6247 262° West 407 468 36,000  Level Chicago Center
09:49AM 41.4553 -90.7797 260° West 419 482 36,000  Level Chicago Center
09:50AM 41.4383 -90.9281 261° West 409 471 36,000  Level Chicago Center
09:51AM 41.4208 -91.0786 261° West 410 472 36,000  Level Chicago Center
09:52AM 41.3992 -91.2572 261° West 409 471 36,000  Level Chicago Center
09:53AM 41.3828 -91.3994 261° West 410 472 36,000  Level Chicago Center
09:54AM 41.3650 -91.5478 261° West 408 470 36,000  Level Chicago Center
09:55AM 41.3464 -91.6942 260° West 405 466 36,000  Level Chicago Center
09:57AM 41.3292 -91.8428 261° West 407 468 36,000  Level Chicago Center
09:58AM 41.3067 -92.0186 260° West 403 464 36,000  Level Chicago Center
09:59AM 41.2881 -92.1650 260° West 403 464 36,000  Level Chicago Center
10:00AM 41.2686 -92.3111 260° West 403 464 36,000  Level Chicago Center
10:01AM 41.2522 -92.4406 260° West 403 464 36,000  Level Chicago Center
10:03AM 41.2100 -92.7578 260° West 400 460 36,000  Level Chicago Center
10:04AM 41.1947 -92.8797 261° West 406 467 36,000  Level Minneapolis Center
10:05AM 41.1753 -93.0247 260° West 405 466 36,000  Level Minneapolis Center
10:06AM 41.1550 -93.1697 260° West 404 465 36,000  Level Minneapolis Center
10:07AM 41.1319 -93.3433 260° West 403 464 36,000  Level Minneapolis Center
10:08AM 41.1122 -93.4903 260° West 406 467 36,000  Level Minneapolis Center
10:09AM 41.0906 -93.6367 259° West 407 468 36,000  Level Minneapolis Center
10:10AM 41.0711 -93.7814 260° West 405 466 36,000  Level Minneapolis Center
10:11AM 41.0492 -93.9283 259° West 408 470 36,000  Level Minneapolis Center
10:12AM 41.0275 -94.0744 259° West 408 470 36,000  Level Minneapolis Center
10:13AM 41.0075 -94.2189 260° West 404 465 36,000  Level Minneapolis Center
10:14AM 40.9867 -94.3658 259° West 406 467 36,000  Level Minneapolis Center
10:15AM 40.9647 -94.5108 259° West 406 467 36,000  Level Minneapolis Center
10:16AM 40.9383 -94.6833 259° West 407 468 36,000  Level Minneapolis Center
10:17AM 40.9156 -94.8308 258° West 408 470 36,000  Level Minneapolis Center
10:18AM 40.8939 -94.9772 259° West 407 468 36,000  Level Minneapolis Center
10:19AM 40.8719 -95.1242 259° West 406 467 36,000  Level Minneapolis Center
10:20AM 40.8475 -95.2744 258° West 414 476 36,000  Level Minneapolis Center
10:21AM 40.8247 -95.4231 259° West 413 475 36,000  Level Minneapolis Center
10:22AM 40.8011 -95.5694 258° West 409 471 36,000  Level Minneapolis Center
10:23AM 40.7778 -95.7169 258° West 408 470 36,000  Level Minneapolis Center
10:24AM 40.7550 -95.8650 259° West 410 472 36,000  Level Minneapolis Center
10:25AM 40.7308 -96.0131 258° West 410 472 36,000  Level Minneapolis Center
10:26AM 40.7067 -96.1606 258° West 410 472 36,000  Level Minneapolis Center
10:27AM 40.6822 -96.3097 258° West 413 475 36,000  Level Minneapolis Center
10:28AM 40.6522 -96.4861 257° West 411 473 36,000  Level Minneapolis Center
10:29AM 40.6281 -96.6331 258° West 410 472 36,000  Level Minneapolis Center
10:30AM 40.6036 -96.7794 258° West 409 471 36,000  Level Minneapolis Center
10:31AM 40.5789 -96.9264 258° West 411 473 36,000  Level Minneapolis Center
10:32AM 40.5533 -97.0711 257° West 407 468 36,000  Level Minneapolis Center
10:33AM 40.5281 -97.2181 257° West 410 472 36,000  Level Minneapolis Center
10:34AM 40.5000 -97.3786 257° West 410 472 36,000  Level Minneapolis Center
10:35AM 40.4736 -97.5253 257° West 411 473 36,000  Level Minneapolis Center
10:36AM 40.4481 -97.6731 257° West 413 475 36,000  Level Minneapolis Center
10:37AM 40.4211 -97.8222 257° West 417 480 36,000  Level Minneapolis Center
10:38AM 40.3939 -97.9689 256° West 414 476 36,000  Level Minneapolis Center
10:39AM 40.3683 -98.1172 257° West 415 478 36,000  Level Minneapolis Center
10:40AM 40.3411 -98.2642 256° West 414 476 36,000  Level Minneapolis Center
10:41AM 40.3131 -98.4111 256° West 414 476 36,000  Level Minneapolis Center
10:42AM 40.2856 -98.5583 256° West 414 476 36,000  Level Minneapolis Center
10:43AM 40.2578 -98.7047 256° West 413 475 36,000  Level Minneapolis Center
10:44AM 40.2300 -98.8514 256° West 413 475 36,000  Level Minneapolis Center
10:45AM 40.2244 -98.8822 257° West 413 475 36,000  Level Denver Center
10:46AM 40.1919 -99.0550 256° West 407 468 36,000  Level Denver Center
10:47AM 40.1644 -99.1997 256° West 408 470 36,000  Level Denver Center
10:48AM 40.1358 -99.3431 255° West 406 467 36,000  Level Denver Center
10:49AM 40.1086 -99.4853 256° West 403 464 36,000  Level Denver Center
10:50AM 40.0792 -99.6289 255° West 406 467 36,000  Level Denver Center
10:51AM 40.0519 -99.7742 256° West 409 471 36,000  Level Denver Center
10:52AM 40.0222 -99.9194 255° West 412 474 36,000  Level Denver Center
10:53AM 39.9872 -100.0944 255° West 415 478 36,000  Level Denver Center
10:54AM 39.9569 -100.2397 255° West 415 478 36,000  Level Denver Center
10:55AM 39.9306 -100.3750 256° West 416 479 36,000  Level Denver Center
10:56AM 39.8969 -100.5367 255° West 415 478 36,000  Level Denver Center
10:57AM 39.8681 -100.6775 255° West 417 480 36,000  Level Denver Center
10:58AM 39.8350 -100.8381 255° West 414 476 36,000  Level Denver Center
10:59AM 39.8050 -100.9750 254° West 411 473 36,000  Level Denver Center
11:00AM 39.7758 -101.1114 254° West 409 471 36,000  Level Denver Center
11:01AM 39.7419 -101.2711 255° West 410 472 36,000  Level Denver Center
11:02AM 39.7125 -101.4108 255° West 417 480 36,000  Level Denver Center
11:03AM 39.6772 -101.5703 254° West 413 475 36,000  Level Denver Center
11:04AM 39.6483 -101.7069 255° West 411 473 36,000  Level Denver Center
11:05AM 39.6133 -101.8653 254° West 409 471 36,000  Level Denver Center
11:06AM 39.5844 -102.0008 255° West 407 468 36,000  Level Denver Center
11:07AM 39.5514 -102.1594 255° West 406 467 36,000  Level Denver Center
11:08AM 39.5206 -102.2931 253° West 404 465 36,000  Level Denver Center
11:09AM 39.4872 -102.4367 253° West 399 459 36,000  Level Denver Center
11:10AM 39.4550 -102.5767 253° West 401 461 36,000  Level Denver Center
11:11AM 39.4239 -102.7169 254° West 403 464 36,000  Level Denver Center
11:12AM 39.3917 -102.8572 253° West 404 465 36,000  Level Denver Center
11:13AM 39.3594 -102.9969 253° West 403 464 36,000  Level Denver Center
11:14AM 39.3272 -103.1364 253° West 402 463 36,000  Level Denver Center
11:15AM 39.2892 -103.2997 253° West 401 461 36,000  Level Denver Center
11:16AM 39.2572 -103.4400 254° West 403 464 36,000  Level Denver Center
11:18AM 39.2225 -103.5797 252° West 405 466 36,000  Level Denver Center
11:19AM 39.1903 -103.7197 254° West 403 464 36,000  Level Denver Center
11:20AM 39.1567 -103.8603 253° West 406 467 36,000  Level Denver Center
11:21AM 39.1239 -104.0006 253° West 403 464 36,000  Level Denver Center
11:22AM 39.0883 -104.1403 252° West 406 467 36,000  Level Denver Center
11:23AM 39.0547 -104.2789 253° West 403 464 36,000  Level Denver Center
11:24AM 39.0208 -104.4164 252° West 400 460 36,000  Level Denver Center
11:25AM 38.9822 -104.5775 253° West 400 460 36,000  Level Denver Center
11:26AM 38.9483 -104.7131 252° West 396 456 36,000  Level Denver Center
11:27AM 38.9153 -104.8450 252° West 386 444 36,000  Level Denver Center
11:28AM 38.8819 -104.9778 252° West 386 444 36,000  Level Denver Center
11:29AM 38.8486 -105.1111 252° West 389 448 36,000  Level Denver Center
11:30AM 38.8156 -105.2436 252° West 387 445 36,000  Level Denver Center
11:31AM 38.7819 -105.3750 252° West 384 442 36,000  Level Denver Center
11:32AM 38.7486 -105.5047 252° West 379 436 36,000  Level Denver Center
11:33AM 38.7147 -105.6381 252° West 388 447 36,000  Level Denver Center
11:34AM 38.6736 -105.7936 251° West 392 451 36,000  Level Denver Center
11:35AM 38.6397 -105.9261 252° West 389 448 36,000  Level Denver Center
11:36AM 38.6069 -106.0469 251° West 392 451 36,000  Level Denver Center
11:37AM 38.5733 -106.1808 252° West 386 444 36,000  Level Denver Center
11:38AM 38.5375 -106.3136 251° West 393 452 36,000  Level Denver Center
11:39AM 38.5022 -106.4450 251° West 391 450 36,000  Level Denver Center
11:40AM 38.4669 -106.5789 251° West 395 455 36,000  Level Denver Center
11:41AM 38.4161 -106.7678 251° West 394 453 36,000  Level Denver Center
11:42AM 38.3808 -106.8961 251° West 393 452 36,000  Level Denver Center
11:44AM 38.3453 -107.0278 251° West 392 451 36,000  Level Denver Center
11:45AM 38.3097 -107.1586 251° West 391 450 36,000  Level Denver Center
11:46AM 38.2725 -107.2931 251° West 392 451 36,000  Level Denver Center
11:47AM 38.2328 -107.4400 251° West 393 452 36,000  Level Denver Center
11:48AM 38.2050 -107.5681 255° West 391 450 36,000  Level Denver Center
11:49AM 38.1728 -107.7183 255° West 393 452 36,000  Level Denver Center
11:50AM 38.1442 -107.8461 254° West 393 452 36,000  Level Denver Center
11:51AM 38.1164 -107.9747 255° West 394 453 36,000  Level Denver Center
11:52AM 38.0825 -108.1267 254° West 398 458 36,000  Level Denver Center
11:53AM 38.0475 -108.2825 254° West 396 456 36,000  Level Denver Center
11:54AM 38.0142 -108.4322 254° West 396 456 36,000  Level Denver Center
11:55AM 37.9847 -108.5586 254° West 394 453 36,000  Level Denver Center
11:56AM 37.9508 -108.7069 254° West 393 452 36,000  Level Denver Center
11:57AM 37.9214 -108.8336 254° West 393 452 36,000  Level Denver Center
11:58AM 37.8881 -108.9797 254° West 389 448 36,000  Level Denver Center
11:59AM 37.8589 -109.1058 254° West 390 449 36,000  Level Denver Center
12:00PM 37.8244 -109.2519 253° West 390 449 36,000  Level Denver Center
12:01PM 37.7950 -109.3769 253° West 388 447 36,000  Level Denver Center
12:02PM 37.7600 -109.5236 253° West 390 449 36,000  Level Denver Center
12:03PM 37.7308 -109.6497 254° West 391 450 36,000  Level Denver Center
12:04PM 37.7006 -109.7753 253° West 391 450 36,000  Level Denver Center
12:05PM 37.6658 -109.9211 253° West 389 448 36,000  Level Denver Center
12:06PM 37.6353 -110.0444 253° West 385 443 36,000  Level Denver Center
12:07PM 37.6011 -110.1864 253° West 380 437 36,000  Level Denver Center
12:09PM 37.5719 -110.3083 253° West 380 437 36,000  Level Denver Center
12:10PM 37.5378 -110.4483 253° West 376 433 36,000  Level Denver Center
12:11PM 37.5075 -110.5692 253° West 378 435 36,000  Level Denver Center
12:12PM 37.4764 -110.6956 253° West 379 436 36,000  Level Denver Center
12:13PM 37.4394 -110.8464 253° West 377 434 36,000  Level Denver Center
12:14PM 37.4089 -110.9728 253° West 378 435 36,000 -540 Level Denver Center
12:15PM 37.3758 -111.1003 252° West 382 440 35,000 -1,020 Descending Denver Center
12:16PM 37.3439 -111.2267 252° West 381 438 34,000 -1,020 Descending Denver Center
12:17PM 37.3128 -111.3508 253° West 377 434 32,900 -1,020 Descending Denver Center
12:18PM 37.2822 -111.4744 253° West 373 429 32,000 -480 Descending Denver Center
12:19PM 37.2417 -111.6222 251° West 370 426 32,000  Level Denver Center
12:20PM 37.2117 -111.7486 253° West 375 432 32,000  Level Denver Center
12:21PM 37.1783 -111.8778 252° West 384 442 32,000  Level Denver Center
12:21PM 37.1600 -111.9314 247° West 387 445 32,000  Level Los Angeles Center
12:22PM 37.1264 -112.0614 252° West 390 449 32,000  Level Los Angeles Center
12:23PM 37.0953 -112.1900 253° West 387 445 32,000  Level Los Angeles Center
12:24PM 37.0528 -112.3461 251° West 392 451 32,000  Level Los Angeles Center
12:26PM 37.0239 -112.4503 251° West 393 452 32,000  Level Los Angeles Center
12:27PM 36.9831 -112.6081 252° West 395 455 32,000  Level Los Angeles Center
12:28PM 36.9472 -112.7394 251° West 398 458 32,000  Level Los Angeles Center
12:29PM 36.9117 -112.8708 251° West 398 458 32,000 -600 Level Los Angeles Center
12:31PM 36.8425 -113.1231 251° West 382 440 30,300 -960 Descending Los Angeles Center
12:32PM 36.8025 -113.2664 251° West 367 422 29,100 -1,140 Descending Los Angeles Center
12:33PM 36.7697 -113.3872 251° West 367 422 28,000 -1,020 Descending Los Angeles Center
12:34PM 36.7367 -113.5061 251° West 364 419 27,000 -1,260 Descending Los Angeles Center
12:35PM 36.7047 -113.6239 251° West 361 415 25,500 -1,560 Descending Los Angeles Center
12:36PM 36.6731 -113.7386 251° West 353 406 23,800 -1,740 Descending Los Angeles Center
12:37PM 36.6414 -113.8481 250° West 340 391 22,000 -1,800 Descending Los Angeles Center
12:38PM 36.6050 -113.9756 250° West 329 379 20,100 -1,800 Descending Los Angeles Center
12:39PM 36.5753 -114.0828 251° West 327 376 18,400 -1,560 Descending Los Angeles Center
12:40PM 36.5314 -114.1800 241° Southwest 324 373 16,900 -1,620 Descending Los Angeles Center
12:41PM 36.4939 -114.2692 242° Southwest 315 362 15,400 -1,680 Descending Los Angeles Center
12:42PM 36.4592 -114.3453 240° Southwest 301 346 14,100 -1,440 Descending Los Angeles Center
12:42PM 36.4467 -114.3669 234° Southwest 305 351 13,700 -1,620 Descending Los Angeles Center
12:43PM 36.4183 -114.4342 242° Southwest 299 344 12,500 -1,500 Descending Los Angeles Center
12:43PM 36.4058 -114.4550 233° Southwest 297 342 12,200 -1,020 Descending Los Angeles Center
12:44PM 36.3636 -114.5092 226° Southwest 295 339 11,500 -1,020 Descending Los Angeles Center
12:44PM 36.3428 -114.5197 202° Southwest 298 343 11,200 -1,020 Descending Los Angeles Center
12:45PM 36.2933 -114.5625 215° Southwest 297 342 10,500 -1,380 Descending Los Angeles Center
12:45PM 36.2589 -114.5833 206° Southwest 294 338 9,800 -1,320 Descending Los Angeles Center
12:46PM 36.2228 -114.6156 216° Southwest 286 329 9,200 -1,200 Descending Los Angeles Center
12:46PM 36.1933 -114.6353 208° Southwest 282 325 8,600 -1,080 Descending Los Angeles Center
12:47PM 36.1525 -114.6686 213° Southwest 270 311 8,000 -600 Descending Los Angeles Center
12:47PM 36.1303 -114.6836 209° Southwest 271 312 8,000  Level Los Angeles Center
12:48PM 36.0931 -114.7128 212° Southwest 239 275 8,000  Level Los Angeles Center
12:48PM 36.0733 -114.7272 211° Southwest 256 295 8,000 -240 Level Los Angeles Center
12:49PM 36.0739 -114.7831 271° West 226 260 7,800 -600 Descending Los Angeles Center
12:49PM 36.0736 -114.8039 269° West 233 268 7,400 -900 Descending Los Angeles Center
12:50PM 36.0744 -114.8547 271° West 211 243 6,900 -900 Descending Los Angeles Center
12:50PM 36.0750 -114.8758 272° West 218 251 6,500 -900 Descending Los Angeles Center
12:51PM 36.0753 -114.9264 270° West 188 216 6,000 -600 Descending Los Angeles Center
12:51PM 36.0753 -114.9297 270° West 209 241 5,900 -1,440 Descending Los Angeles Center
12:52PM 36.0739 -115.0147 269° West 190 219 3,900 -1,680 Descending Los Angeles Center
12:53PM 36.0733 -115.0467 269° West 176 203 3,300 -960 Descending Los Angeles Center
12:53PM 36.0742 -115.0739 272° West 180 207 2,900 -900 Descending Los Angeles Center
12:54PM 36.0728 -115.1028 267° West 160 184 2,400 -900 Descending Los Angeles Center
12:55PM 36.0742 -115.1278 274° West 169 194 2,000 -780 Descending Los Angeles Center
12:57PM 36.0667 -115.1500 219° Southwest  Level FlightAware Approximate